createdAt,value
2023-03-10T00:01:47.513Z,49.50
2023-03-10T00:04:19.180Z,49.44
2023-03-10T00:07:10.199Z,49.51
2023-03-10T00:10:17.223Z,49.61
2023-03-10T00:12:53.633Z,49.72
2023-03-10T00:15:26.748Z,49.70
2023-03-10T00:18:01.221Z,50.09
2023-03-10T00:20:32.273Z,49.92
2023-03-10T00:23:04.485Z,49.97
2023-03-10T00:25:36.522Z,50.06
2023-03-10T00:28:07.208Z,50.03
2023-03-10T00:30:37.425Z,50.25
2023-03-10T00:33:09.974Z,50.51
2023-03-10T00:36:47.814Z,50.26
2023-03-10T00:52:34.121Z,51.13
2023-03-10T00:55:26.609Z,51.52
2023-03-10T00:57:59.173Z,51.77
2023-03-10T01:00:51.827Z,51.92
2023-03-10T01:03:43.952Z,51.75
2023-03-10T01:06:23.103Z,51.96
2023-03-10T01:09:15.070Z,52.31
2023-03-10T01:11:48.958Z,52.40
2023-03-10T01:14:40.131Z,52.77
2023-03-10T01:17:15.584Z,52.66
2023-03-10T01:19:45.035Z,52.61
2023-03-10T01:22:15.305Z,52.65
2023-03-10T01:24:45.842Z,52.70
2023-03-10T01:27:18.233Z,53.47
2023-03-10T01:29:51.601Z,54.25
2023-03-10T01:33:06.520Z,54.23
2023-03-10T01:40:27.772Z,54.49
2023-03-10T01:43:26.121Z,54.26
2023-03-10T01:46:38.704Z,54.64
2023-03-10T01:49:47.079Z,54.80
2023-03-10T01:53:12.877Z,54.34
2023-03-10T01:55:52.829Z,55.10
2023-03-10T01:58:49.835Z,55.16
2023-03-10T02:02:35.905Z,54.93
2023-03-10T02:05:58.049Z,55.81
2023-03-10T02:08:34.967Z,55.09
2023-03-10T02:11:11.672Z,55.29
2023-03-10T02:19:55.857Z,55.52
2023-03-10T02:23:05.708Z,56.06
2023-03-10T02:26:40.841Z,57.05
2023-03-10T02:30:28.807Z,56.33
2023-03-10T02:33:06.131Z,56.45
2023-03-10T02:36:35.616Z,56.25
2023-03-10T02:39:47.438Z,56.16
2023-03-10T02:58:50.141Z,58.20
2023-03-10T03:05:06.462Z,59.13
2023-03-10T03:19:33.170Z,58.83
2023-03-10T03:23:13.682Z,59.07
2023-03-10T03:29:57.195Z,58.67
2023-03-10T03:32:31.223Z,59.01
2023-03-10T03:35:22.133Z,59.24
2023-03-10T03:38:00.103Z,59.27
2023-03-10T03:40:53.941Z,59.20
2023-03-10T03:43:44.665Z,59.39
2023-03-10T03:46:21.054Z,59.81
2023-03-10T03:49:02.669Z,59.35
2023-03-10T03:52:38.456Z,59.68
2023-03-10T03:56:45.434Z,59.40
2023-03-10T04:09:43.046Z,61.01
2023-03-10T04:16:04.888Z,62.54
2023-03-10T04:19:36.048Z,63.34
2023-03-10T04:26:52.713Z,61.34
2023-03-10T04:29:25.240Z,61.44
2023-03-10T04:32:05.336Z,63.23
2023-03-10T04:34:38.642Z,63.37
2023-03-10T04:37:10.815Z,63.15
2023-03-10T04:39:41.167Z,63.04
2023-03-10T04:42:14.599Z,63.02
2023-03-10T04:44:47.447Z,64.62
2023-03-10T04:47:18.205Z,64.68
2023-03-10T04:49:50.897Z,64.78
2023-03-10T04:52:50.346Z,64.45
2023-03-10T04:55:22.173Z,64.31
2023-03-10T04:57:54.665Z,64.81
2023-03-10T05:00:29.756Z,63.96
2023-03-10T05:06:57.848Z,63.70
2023-03-10T05:13:43.347Z,66.36
2023-03-10T05:16:34.296Z,66.06
2023-03-10T05:19:08.649Z,66.07
2023-03-10T05:21:40.230Z,65.02
2023-03-10T05:24:12.866Z,64.77
2023-03-10T05:26:42.800Z,64.74
2023-03-10T05:29:13.084Z,65.35
2023-03-10T05:31:48.802Z,65.38
2023-03-10T05:34:24.105Z,65.66
2023-03-10T05:36:54.923Z,65.72
2023-03-10T05:39:26.359Z,65.17
2023-03-10T05:41:58.681Z,64.99
2023-03-10T05:44:36.109Z,65.35
2023-03-10T05:47:30.041Z,65.67
2023-03-10T05:54:00.960Z,66.31
2023-03-10T05:56:54.908Z,66.57
2023-03-10T05:59:57.940Z,66.06
2023-03-10T06:02:32.796Z,66.30
2023-03-10T06:05:05.814Z,66.21
2023-03-10T06:07:38.304Z,65.74
2023-03-10T06:10:08.582Z,66.27
2023-03-10T06:12:38.656Z,66.85
2023-03-10T06:15:09.951Z,67.47
2023-03-10T06:17:42.466Z,66.63
2023-03-10T06:20:15.901Z,67.08
2023-03-10T06:22:49.676Z,67.33
2023-03-10T06:25:22.334Z,67.16
2023-03-10T06:27:56.733Z,66.81
2023-03-10T06:30:26.692Z,66.90
2023-03-10T06:32:59.528Z,66.44
2023-03-10T06:35:33.967Z,67.34
2023-03-10T06:38:03.165Z,66.48
2023-03-10T06:40:34.726Z,66.21
2023-03-10T06:43:06.748Z,66.79
2023-03-10T06:45:36.426Z,67.02
2023-03-10T06:48:07.915Z,67.19
2023-03-10T06:50:50.289Z,66.94
2023-03-10T06:53:24.007Z,67.36
2023-03-10T06:56:00.859Z,67.77
2023-03-10T06:58:31.571Z,67.32
2023-03-10T07:01:01.168Z,67.49
2023-03-10T07:03:31.353Z,68.37
2023-03-10T07:06:01.896Z,67.60
2023-03-10T07:08:34.234Z,67.56
2023-03-10T07:11:03.648Z,67.89
2023-03-10T07:13:32.751Z,67.90
2023-03-10T07:16:02.254Z,67.88
2023-03-10T07:18:31.829Z,67.87
2023-03-10T07:21:01.911Z,67.33
2023-03-10T07:23:31.589Z,67.80
2023-03-10T07:26:09.452Z,67.11
2023-03-10T07:29:00.933Z,66.95
2023-03-10T07:31:46.328Z,67.54
2023-03-10T07:34:18.374Z,67.53
2023-03-10T07:36:49.437Z,67.60
2023-03-10T07:39:21.141Z,68.20
2023-03-10T07:41:52.589Z,67.92
2023-03-10T07:44:24.901Z,67.85
2023-03-10T07:46:54.751Z,67.88
2023-03-10T07:49:25.993Z,68.00
2023-03-10T07:53:09.597Z,68.03
2023-03-10T07:55:40.318Z,67.81
2023-03-10T07:58:13.283Z,68.89
2023-03-10T08:00:45.217Z,68.39
2023-03-10T08:03:15.473Z,68.67
2023-03-10T08:05:48.591Z,68.50
2023-03-10T08:08:19.221Z,68.68
2023-03-10T08:10:52.468Z,68.50
2023-03-10T08:13:25.639Z,68.42
2023-03-10T08:15:56.181Z,68.61
2023-03-10T08:18:28.663Z,68.60
2023-03-10T08:21:03.740Z,69.15
2023-03-10T08:23:58.618Z,68.57
2023-03-10T08:26:30.009Z,68.48
2023-03-10T08:29:00.926Z,68.35
2023-03-10T08:31:30.827Z,68.77
2023-03-10T08:34:02.493Z,68.79
2023-03-10T08:36:33.796Z,68.78
2023-03-10T08:39:06.256Z,69.08
2023-03-10T08:41:42.961Z,68.54
2023-03-10T08:44:16.248Z,68.59
2023-03-10T08:46:48.862Z,68.87
2023-03-10T08:49:23.279Z,68.48
2023-03-10T08:51:56.350Z,68.83
2023-03-10T08:54:27.818Z,68.83
2023-03-10T08:56:57.860Z,68.70
2023-03-10T08:59:29.138Z,68.80
2023-03-10T09:01:59.369Z,68.69
2023-03-10T09:04:31.376Z,68.67
2023-03-10T09:07:02.307Z,69.11
2023-03-10T09:09:34.413Z,68.69
2023-03-10T09:12:07.436Z,68.54
2023-03-10T09:14:38.613Z,68.88
2023-03-10T09:17:08.626Z,69.14
2023-03-10T09:19:39.508Z,68.80
2023-03-10T09:22:11.092Z,69.00
2023-03-10T09:24:40.566Z,68.98
2023-03-10T09:27:12.188Z,68.78
2023-03-10T09:29:43.619Z,69.03
2023-03-10T09:32:15.471Z,69.09
2023-03-10T09:34:51.387Z,69.09
2023-03-10T09:37:23.309Z,69.42
2023-03-10T09:39:54.052Z,69.15
2023-03-10T09:42:38.384Z,69.40
2023-03-10T09:45:25.356Z,69.00
2023-03-10T09:48:10.542Z,69.14
2023-03-10T09:50:52.724Z,69.75
2023-03-10T09:53:54.063Z,69.10
2023-03-10T09:56:32.181Z,69.52
2023-03-10T09:59:13.557Z,69.21
2023-03-10T10:01:47.390Z,69.53
2023-03-10T10:04:25.552Z,69.23
2023-03-10T10:06:58.048Z,69.17
2023-03-10T10:09:45.433Z,69.25
2023-03-10T10:12:21.391Z,69.35
2023-03-10T10:14:57.686Z,69.29
2023-03-10T10:17:32.485Z,69.16
2023-03-10T10:20:15.886Z,69.14
2023-03-10T10:22:48.234Z,69.42
2023-03-10T10:25:22.085Z,69.11
2023-03-10T10:27:55.385Z,69.57
2023-03-10T10:30:39.230Z,69.38
2023-03-10T10:33:11.716Z,69.82
2023-03-10T10:35:44.233Z,69.86
2023-03-10T10:38:16.961Z,70.02
2023-03-10T10:40:59.223Z,69.98
2023-03-10T10:43:30.197Z,70.36
2023-03-10T10:46:07.552Z,70.15
2023-03-10T10:48:43.458Z,69.79
2023-03-10T10:51:39.615Z,70.22
2023-03-10T10:54:28.845Z,69.59
2023-03-10T10:57:03.717Z,69.77
2023-03-10T10:59:34.820Z,69.74
2023-03-10T11:02:25.202Z,70.07
2023-03-10T11:05:07.327Z,70.03
2023-03-10T11:07:36.320Z,70.14
2023-03-10T11:10:27.044Z,70.28
2023-03-10T11:13:16.304Z,69.84
2023-03-10T11:16:07.469Z,69.76
2023-03-10T11:18:52.713Z,70.14
2023-03-10T11:21:36.932Z,70.35
2023-03-10T11:24:26.739Z,70.08
2023-03-10T11:27:06.909Z,70.10
2023-03-10T11:29:55.008Z,70.53
2023-03-10T11:32:56.402Z,70.41
2023-03-10T11:35:48.471Z,70.37
2023-03-10T11:38:37.543Z,70.10
2023-03-10T11:41:14.214Z,70.47
2023-03-10T11:43:56.017Z,70.05
2023-03-10T11:46:53.799Z,70.22
2023-03-10T11:49:27.811Z,70.23
2023-03-10T11:52:14.992Z,70.14
2023-03-10T11:54:54.625Z,70.21
2023-03-10T11:57:41.260Z,69.89
2023-03-10T12:00:26.035Z,70.25
2023-03-10T12:03:06.309Z,70.42
2023-03-10T12:05:54.953Z,70.55
2023-03-10T12:08:32.873Z,70.53
2023-03-10T12:11:07.301Z,70.65
2023-03-10T12:13:50.193Z,70.72
2023-03-10T12:16:33.359Z,70.76
2023-03-10T12:19:06.752Z,70.51
2023-03-10T12:21:36.733Z,70.50
2023-03-10T12:24:27.067Z,70.54
2023-03-10T12:27:02.588Z,70.49
2023-03-10T12:29:34.747Z,70.60
2023-03-10T12:32:04.933Z,70.86
2023-03-10T12:34:35.709Z,70.96
2023-03-10T12:37:10.940Z,70.98
2023-03-10T12:39:44.320Z,70.75
2023-03-10T12:42:31.512Z,70.80
2023-03-10T12:45:18.688Z,70.95
2023-03-10T12:47:56.688Z,71.01
2023-03-10T12:50:32.459Z,70.81
2023-03-10T12:53:31.163Z,71.08
2023-03-10T12:56:21.589Z,71.13
2023-03-10T12:59:05.606Z,71.19
2023-03-10T13:01:55.160Z,71.21
2023-03-10T13:04:28.222Z,71.24
2023-03-10T13:07:04.473Z,71.27
2023-03-10T13:09:41.601Z,71.64
2023-03-10T13:12:23.000Z,71.43
2023-03-10T13:14:57.154Z,71.44
2023-03-10T13:17:29.560Z,71.48
2023-03-10T13:20:15.536Z,71.14
2023-03-10T13:22:59.442Z,71.56
2023-03-10T13:25:29.620Z,71.87
2023-03-10T13:28:12.342Z,71.62
2023-03-10T13:30:42.171Z,71.94
2023-03-10T13:33:21.917Z,71.81
2023-03-10T13:35:54.212Z,71.29
2023-03-10T13:38:24.918Z,71.63
2023-03-10T13:41:02.684Z,71.81
2023-03-10T13:43:38.644Z,71.94
2023-03-10T13:46:18.391Z,71.96
2023-03-10T13:48:49.336Z,72.12
2023-03-10T13:51:35.656Z,72.23
2023-03-10T13:54:44.013Z,72.10
2023-03-10T13:57:36.043Z,71.94
2023-03-10T14:00:11.473Z,71.92
2023-03-10T14:02:45.403Z,72.22
2023-03-10T14:05:49.928Z,71.84
2023-03-10T14:08:26.594Z,72.01
2023-03-10T14:11:24.149Z,71.95
2023-03-10T14:13:55.656Z,72.25
2023-03-10T14:16:58.594Z,72.01
2023-03-10T14:19:49.749Z,72.46
2023-03-10T14:22:41.048Z,72.42
2023-03-10T14:25:22.049Z,72.15
2023-03-10T14:28:04.759Z,72.04
2023-03-10T14:30:34.743Z,72.55
2023-03-10T14:33:12.459Z,72.80
2023-03-10T14:35:44.951Z,72.93
2023-03-10T14:38:14.409Z,72.66
2023-03-10T14:40:51.038Z,72.84
2023-03-10T14:43:28.158Z,72.71
2023-03-10T14:46:00.776Z,73.24
2023-03-10T14:48:35.774Z,73.47
2023-03-10T14:51:09.031Z,72.92
2023-03-10T14:53:42.733Z,72.94
2023-03-10T14:56:20.564Z,72.50
2023-03-10T14:58:56.386Z,72.86
2023-03-10T15:01:27.187Z,72.57
2023-03-10T15:03:58.395Z,72.57
2023-03-10T15:06:28.908Z,72.71
2023-03-10T15:09:01.948Z,72.91
2023-03-10T15:11:37.324Z,72.94
2023-03-10T15:14:18.739Z,72.30
2023-03-10T15:16:50.213Z,72.43
2023-03-10T15:19:26.903Z,72.12
2023-03-10T15:21:56.497Z,72.57
2023-03-10T15:24:26.849Z,72.38
2023-03-10T15:26:58.481Z,72.52
2023-03-10T15:29:31.835Z,72.46
2023-03-10T15:32:02.797Z,72.46
2023-03-10T15:34:35.401Z,72.50
2023-03-10T15:37:08.945Z,72.52
2023-03-10T15:39:40.264Z,72.87
2023-03-10T15:42:12.979Z,72.69
2023-03-10T15:44:42.919Z,72.93
2023-03-10T15:47:14.605Z,73.20
2023-03-10T15:49:45.493Z,73.32
2023-03-10T15:52:20.782Z,73.65
2023-03-10T15:54:52.160Z,73.35
2023-03-10T15:57:21.716Z,73.35
2023-03-10T15:59:52.316Z,73.38
2023-03-10T16:02:23.664Z,73.37
2023-03-10T16:04:52.896Z,73.23
2023-03-10T16:07:22.935Z,73.43
2023-03-10T16:09:58.840Z,72.99
2023-03-10T16:12:29.599Z,73.19
2023-03-10T16:15:03.083Z,73.17
2023-03-10T16:17:34.872Z,73.15
2023-03-10T16:20:10.528Z,73.18
2023-03-10T16:22:43.272Z,73.24
2023-03-10T16:25:15.864Z,73.39
2023-03-10T16:27:49.239Z,73.30
2023-03-10T16:30:19.778Z,73.00
2023-03-10T16:32:53.000Z,72.97
2023-03-10T16:35:29.885Z,73.35
2023-03-10T16:38:05.347Z,73.55
2023-03-10T16:40:38.364Z,72.93
2023-03-10T16:43:10.835Z,73.28
2023-03-10T16:45:41.404Z,73.64
2023-03-10T16:48:13.409Z,73.05
2023-03-10T16:50:48.731Z,73.25
2023-03-10T16:53:22.526Z,73.97
2023-03-10T16:56:03.567Z,73.52
2023-03-10T16:58:37.251Z,73.94
2023-03-10T17:01:11.867Z,73.81
2023-03-10T17:03:45.121Z,73.78
2023-03-10T17:06:21.022Z,73.93
2023-03-10T17:08:58.265Z,73.54
2023-03-10T17:11:32.682Z,73.48
2023-03-10T17:14:08.924Z,73.67
2023-03-10T17:16:43.747Z,73.60
2023-03-10T17:19:20.804Z,73.22
2023-03-10T17:21:54.446Z,73.68
2023-03-10T17:24:28.188Z,73.58
2023-03-10T17:27:03.295Z,73.66
2023-03-10T17:29:35.734Z,73.64
2023-03-10T17:32:07.005Z,73.46
2023-03-10T17:34:37.302Z,73.74
2023-03-10T17:37:11.177Z,73.92
2023-03-10T17:39:41.853Z,74.12
2023-03-10T17:42:14.809Z,73.93
2023-03-10T17:44:49.561Z,74.02
2023-03-10T17:47:24.171Z,73.84
2023-03-10T17:50:00.476Z,73.94
2023-03-10T17:52:34.899Z,73.83
2023-03-10T17:55:06.124Z,73.95
2023-03-10T17:57:39.076Z,73.97
2023-03-10T18:00:12.360Z,74.59
2023-03-10T18:02:45.511Z,74.32
2023-03-10T18:05:18.892Z,74.65
2023-03-10T18:07:55.436Z,74.37
2023-03-10T18:10:26.926Z,74.31
2023-03-10T18:12:59.025Z,74.30
2023-03-10T18:15:29.399Z,74.40
2023-03-10T18:18:03.604Z,74.71
2023-03-10T18:20:39.003Z,74.71
2023-03-10T18:23:13.632Z,74.59
2023-03-10T18:25:47.072Z,75.15
2023-03-10T18:28:19.612Z,74.78
2023-03-10T18:30:54.180Z,74.76
2023-03-10T18:33:27.686Z,74.78
2023-03-10T18:36:04.204Z,75.35
2023-03-10T18:38:34.946Z,74.87
2023-03-10T18:41:07.827Z,75.15
2023-03-10T18:43:40.291Z,75.18
2023-03-10T18:46:12.610Z,74.97
2023-03-10T18:48:44.882Z,74.62
2023-03-10T18:51:17.697Z,74.52
2023-03-10T18:53:49.198Z,74.52
2023-03-10T18:56:26.442Z,74.74
2023-03-10T18:58:58.963Z,74.61
2023-03-10T19:01:29.461Z,74.68
2023-03-10T19:04:03.533Z,74.41
2023-03-10T19:06:35.608Z,74.53
2023-03-10T19:09:09.049Z,74.88
2023-03-10T19:11:42.750Z,74.77
2023-03-10T19:14:18.964Z,74.70
2023-03-10T19:16:55.626Z,74.93
2023-03-10T19:19:30.286Z,74.97
2023-03-10T19:22:05.198Z,74.89
2023-03-10T19:24:36.915Z,75.32
2023-03-10T19:27:11.264Z,75.20
2023-03-10T19:29:42.562Z,75.09
2023-03-10T19:32:15.313Z,75.27
2023-03-10T19:34:49.155Z,75.28
2023-03-10T19:37:23.901Z,75.48
2023-03-10T19:39:59.165Z,75.83
2023-03-10T19:42:36.050Z,76.01
2023-03-10T19:45:08.612Z,75.87
2023-03-10T19:47:39.957Z,75.98
2023-03-10T19:50:14.373Z,75.71
2023-03-10T19:52:48.564Z,75.66
2023-03-10T19:55:24.168Z,75.51
2023-03-10T19:57:59.566Z,75.52
2023-03-10T20:00:37.761Z,75.31
2023-03-10T20:03:12.303Z,75.12
2023-03-10T20:05:44.537Z,75.45
2023-03-10T20:08:19.330Z,75.39
2023-03-10T20:10:55.588Z,75.89
2023-03-10T20:13:31.326Z,76.13
2023-03-10T20:16:03.269Z,76.11
2023-03-10T20:18:39.729Z,76.66
2023-03-10T20:21:12.639Z,76.17
2023-03-10T20:23:48.346Z,76.62
2023-03-10T20:26:20.472Z,76.30
2023-03-10T20:28:55.067Z,76.60
2023-03-10T20:31:29.296Z,76.33
2023-03-10T20:34:01.882Z,76.65
2023-03-10T20:36:34.267Z,76.29
2023-03-10T20:39:12.342Z,76.18
2023-03-10T20:41:45.113Z,75.84
2023-03-10T20:44:22.284Z,75.85
2023-03-10T20:46:56.653Z,75.81
2023-03-10T20:49:33.415Z,75.75
2023-03-10T20:52:05.665Z,75.94
2023-03-10T20:54:40.512Z,76.16
2023-03-10T20:57:17.498Z,76.44
2023-03-10T20:59:50.007Z,76.44
2023-03-10T21:02:27.447Z,76.55
2023-03-10T21:05:01.480Z,76.40
2023-03-10T21:07:32.389Z,75.98
2023-03-10T21:10:05.977Z,76.06
2023-03-10T21:12:36.881Z,76.17
2023-03-10T21:15:09.793Z,76.30
2023-03-10T21:17:41.395Z,76.53
2023-03-10T21:20:15.911Z,76.52
2023-03-10T21:22:47.579Z,76.59
2023-03-10T21:25:21.228Z,76.90
2023-03-10T21:27:59.256Z,76.77
2023-03-10T21:30:33.912Z,77.13
2023-03-10T21:33:04.331Z,77.29
2023-03-10T21:35:38.872Z,77.07
2023-03-10T21:38:12.020Z,77.09
2023-03-10T21:40:42.421Z,77.17
2023-03-10T21:43:14.420Z,77.36
2023-03-10T21:45:46.988Z,77.37
2023-03-10T21:48:16.953Z,77.25
2023-03-10T21:50:47.677Z,77.39
2023-03-10T21:53:18.998Z,77.47
2023-03-10T21:55:50.185Z,77.41
2023-03-10T21:58:23.750Z,77.69
2023-03-10T22:00:56.347Z,77.41
2023-03-10T22:03:25.636Z,76.84
2023-03-10T22:05:57.365Z,77.10
2023-03-10T22:08:30.422Z,76.80
2023-03-10T22:11:00.655Z,77.04
2023-03-10T22:13:33.761Z,77.19
2023-03-10T22:16:05.316Z,77.03
2023-03-10T22:18:39.015Z,77.17
2023-03-10T22:21:09.273Z,77.22
2023-03-10T22:23:45.175Z,77.18
2023-03-10T22:26:17.538Z,76.85
2023-03-10T22:28:48.442Z,76.63
2023-03-10T22:31:19.598Z,77.14
2023-03-10T22:34:21.977Z,77.80
2023-03-10T22:36:44.475Z,78.18
2023-03-10T22:39:18.088Z,78.03
2023-03-10T22:41:51.193Z,78.26
2023-03-10T22:44:23.359Z,78.45
2023-03-10T22:46:57.057Z,78.52
2023-03-10T22:49:28.731Z,78.64
2023-03-10T22:52:09.906Z,78.35
2023-03-10T22:55:06.821Z,78.32
2023-03-10T22:57:54.863Z,78.02
2023-03-10T23:00:41.343Z,78.04
2023-03-10T23:03:41.832Z,78.18
2023-03-10T23:06:23.627Z,78.39
2023-03-10T23:08:57.328Z,78.54
2023-03-10T23:11:26.867Z,78.32
2023-03-10T23:14:08.549Z,78.63
2023-03-10T23:16:38.851Z,78.39
2023-03-10T23:19:09.013Z,78.40
2023-03-10T23:21:42.491Z,78.80
2023-03-10T23:24:14.323Z,78.53
2023-03-10T23:26:44.592Z,78.91
2023-03-10T23:29:17.798Z,78.52
2023-03-10T23:32:23.743Z,78.91
2023-03-10T23:35:09.217Z,78.76
2023-03-10T23:37:39.633Z,79.15
2023-03-10T23:40:14.650Z,79.17
2023-03-10T23:42:45.382Z,79.43
2023-03-10T23:45:20.529Z,79.38
2023-03-10T23:47:52.230Z,79.34
2023-03-10T23:50:30.051Z,79.42
2023-03-10T23:53:00.850Z,79.32
2023-03-10T23:55:36.163Z,79.21
2023-03-10T23:58:06.769Z,78.94
